sensor_id;sensor_type;location;lat;lon;timestamp;pressure;altitude;pressure_sealevel;temperature;humidity
75455;BME280;64035;48.358;2.122;2023-03-16T00:01:04;100838.03;;;6.83;75.40
75455;BME280;64035;48.358;2.122;2023-03-16T00:02:09;100836.38;;;6.83;75.05
75455;BME280;64035;48.358;2.122;2023-03-16T00:03:13;100833.72;;;6.82;75.10
75455;BME280;64035;48.358;2.122;2023-03-16T00:04:21;100837.91;;;6.81;76.01
75455;BME280;64035;48.358;2.122;2023-03-16T00:05:24;100837.91;;;6.81;75.38
75455;BME280;64035;48.358;2.122;2023-03-16T00:06:28;100831.16;;;6.82;75.23
75455;BME280;64035;48.358;2.122;2023-03-16T00:07:31;100821.78;;;6.81;75.44
75455;BME280;64035;48.358;2.122;2023-03-16T00:08:35;100815.03;;;6.81;75.78
75455;BME280;64035;48.358;2.122;2023-03-16T00:09:39;100813.38;;;6.82;75.42
75455;BME280;64035;48.358;2.122;2023-03-16T00:10:43;100815.91;;;6.82;74.72
75455;BME280;64035;48.358;2.122;2023-03-16T00:11:50;100811.59;;;6.81;75.46
75455;BME280;64035;48.358;2.122;2023-03-16T00:12:53;100821.00;;;6.82;75.21
75455;BME280;64035;48.358;2.122;2023-03-16T00:13:56;100812.38;;;6.80;75.07
75455;BME280;64035;48.358;2.122;2023-03-16T00:15:00;100820.78;;;6.79;75.33
75455;BME280;64035;48.358;2.122;2023-03-16T00:16:03;100813.84;;;6.76;75.27
75455;BME280;64035;48.358;2.122;2023-03-16T00:17:07;100814.72;;;6.77;75.24
75455;BME280;64035;48.358;2.122;2023-03-16T00:18:10;100811.16;;;6.75;75.23
75455;BME280;64035;48.358;2.122;2023-03-16T00:19:13;100806.09;;;6.75;75.05
75455;BME280;64035;48.358;2.122;2023-03-16T00:20:16;100806.84;;;6.74;75.19
75455;BME280;64035;48.358;2.122;2023-03-16T00:21:20;100808.63;;;6.75;75.22
75455;BME280;64035;48.358;2.122;2023-03-16T00:22:25;100805.84;;;6.72;75.18
75455;BME280;64035;48.358;2.122;2023-03-16T00:23:29;100805.75;;;6.70;75.24
75455;BME280;64035;48.358;2.122;2023-03-16T00:24:36;100802.34;;;6.70;75.28
75455;BME280;64035;48.358;2.122;2023-03-16T00:25:39;100800.59;;;6.69;75.38
75455;BME280;64035;48.358;2.122;2023-03-16T00:26:45;100809.88;;;6.68;75.17
75455;BME280;64035;48.358;2.122;2023-03-16T00:27:48;100809.75;;;6.66;76.14
75455;BME280;64035;48.358;2.122;2023-03-16T00:28:51;100807.22;;;6.66;76.02
75455;BME280;64035;48.358;2.122;2023-03-16T00:29:56;100799.59;;;6.66;75.02
75455;BME280;64035;48.358;2.122;2023-03-16T00:31:03;100805.44;;;6.65;75.44
75455;BME280;64035;48.358;2.122;2023-03-16T00:32:07;100802.13;;;6.66;74.90
75455;BME280;64035;48.358;2.122;2023-03-16T00:33:10;100806.22;;;6.64;75.61
75455;BME280;64035;48.358;2.122;2023-03-16T00:34:14;100801.91;;;6.63;75.23
75455;BME280;64035;48.358;2.122;2023-03-16T00:35:19;100796.63;;;6.60;75.05
75455;BME280;64035;48.358;2.122;2023-03-16T00:36:23;100794.97;;;6.61;75.05
75455;BME280;64035;48.358;2.122;2023-03-16T00:37:26;100792.41;;;6.61;75.62
75455;BME280;64035;48.358;2.122;2023-03-16T00:38:34;100794.84;;;6.59;75.01
75455;BME280;64035;48.358;2.122;2023-03-16T00:39:39;100784.69;;;6.59;75.15
75455;BME280;64035;48.358;2.122;2023-03-16T00:40:43;100786.22;;;6.57;75.24
75455;BME280;64035;48.358;2.122;2023-03-16T00:41:47;100788.75;;;6.57;75.39
75455;BME280;64035;48.358;2.122;2023-03-16T00:42:50;100788.75;;;6.57;75.46
75455;BME280;64035;48.358;2.122;2023-03-16T00:43:53;100783.50;;;6.54;74.83
75455;BME280;64035;48.358;2.122;2023-03-16T00:44:56;100780.84;;;6.53;75.27
75455;BME280;64035;48.358;2.122;2023-03-16T00:46:01;100781.59;;;6.52;75.36
75455;BME280;64035;48.358;2.122;2023-03-16T00:47:09;100783.38;;;6.53;75.53
75455;BME280;64035;48.358;2.122;2023-03-16T00:48:16;100779.72;;;6.49;75.02
75455;BME280;64035;48.358;2.122;2023-03-16T00:49:20;100782.38;;;6.51;75.29
75455;BME280;64035;48.358;2.122;2023-03-16T00:50:24;100783.16;;;6.50;75.24
75455;BME280;64035;48.358;2.122;2023-03-16T00:51:27;100780.59;;;6.50;75.65
75455;BME280;64035;48.358;2.122;2023-03-16T00:52:31;100771.19;;;6.49;75.25
75455;BME280;64035;48.358;2.122;2023-03-16T00:53:39;100773.66;;;6.47;75.28
75455;BME280;64035;48.358;2.122;2023-03-16T00:54:44;100766.81;;;6.46;74.95
75455;BME280;64035;48.358;2.122;2023-03-16T00:55:47;100756.41;;;6.43;74.68
75455;BME280;64035;48.358;2.122;2023-03-16T00:56:50;100756.31;;;6.42;74.94
75455;BME280;64035;48.358;2.122;2023-03-16T00:57:54;100762.38;;;6.44;75.25
75455;BME280;64035;48.358;2.122;2023-03-16T00:58:57;100757.09;;;6.41;75.35
75455;BME280;64035;48.358;2.122;2023-03-16T01:00:00;100764.63;;;6.39;75.57
75455;BME280;64035;48.358;2.122;2023-03-16T01:01:14;100762.06;;;6.39;75.08
75455;BME280;64035;48.358;2.122;2023-03-16T01:02:18;100765.28;;;6.37;75.44
75455;BME280;64035;48.358;2.122;2023-03-16T01:03:25;100767.72;;;6.35;75.17
75455;BME280;64035;48.358;2.122;2023-03-16T01:04:28;100768.47;;;6.34;75.36
75455;BME280;64035;48.358;2.122;2023-03-16T01:05:31;100759.13;;;6.33;75.03
75455;BME280;64035;48.358;2.122;2023-03-16T01:06:35;100768.59;;;6.36;75.06
75455;BME280;64035;48.358;2.122;2023-03-16T01:07:40;100758.22;;;6.33;75.49
75455;BME280;64035;48.358;2.122;2023-03-16T01:08:43;100760.00;;;6.34;75.11
75455;BME280;64035;48.358;2.122;2023-03-16T01:09:46;100748.94;;;6.33;74.99
75455;BME280;64035;48.358;2.122;2023-03-16T01:10:49;100754.91;;;6.34;74.67
75455;BME280;64035;48.358;2.122;2023-03-16T01:11:52;100758.13;;;6.31;75.39
75455;BME280;64035;48.358;2.122;2023-03-16T01:12:56;100751.38;;;6.32;75.49
75455;BME280;64035;48.358;2.122;2023-03-16T01:13:59;100744.41;;;6.29;76.08
75455;BME280;64035;48.358;2.122;2023-03-16T01:15:03;100741.66;;;6.26;75.94
75455;BME280;64035;48.358;2.122;2023-03-16T01:16:06;100742.63;;;6.28;75.41
75455;BME280;64035;48.358;2.122;2023-03-16T01:17:10;100741.66;;;6.26;75.33
75455;BME280;64035;48.358;2.122;2023-03-16T01:18:15;100742.56;;;6.26;76.04
75455;BME280;64035;48.358;2.122;2023-03-16T01:19:20;100741.66;;;6.26;75.38
75455;BME280;64035;48.358;2.122;2023-03-16T01:20:24;100739.13;;;6.26;75.40
75455;BME280;64035;48.358;2.122;2023-03-16T01:21:27;100736.34;;;6.23;75.82
75455;BME280;64035;48.358;2.122;2023-03-16T01:22:31;100734.59;;;6.22;75.34
75455;BME280;64035;48.358;2.122;2023-03-16T01:23:36;100735.47;;;6.22;75.33
75455;BME280;64035;48.358;2.122;2023-03-16T01:24:40;100731.28;;;6.23;75.46
75455;BME280;64035;48.358;2.122;2023-03-16T01:25:44;100729.50;;;6.22;75.25
75455;BME280;64035;48.358;2.122;2023-03-16T01:26:54;100729.31;;;6.19;75.95
75455;BME280;64035;48.358;2.122;2023-03-16T01:27:57;100726.84;;;6.20;75.51
75455;BME280;64035;48.358;2.122;2023-03-16T01:29:00;100727.66;;;6.19;75.73
75455;BME280;64035;48.358;2.122;2023-03-16T01:30:04;100726.78;;;6.19;75.62
75455;BME280;64035;48.358;2.122;2023-03-16T01:31:10;100730.09;;;6.18;76.23
75455;BME280;64035;48.358;2.122;2023-03-16T01:32:14;100724.00;;;6.16;75.26
75455;BME280;64035;48.358;2.122;2023-03-16T01:33:18;100724.00;;;6.16;75.61
75455;BME280;64035;48.358;2.122;2023-03-16T01:34:21;100727.53;;;6.18;75.78
75455;BME280;64035;48.358;2.122;2023-03-16T01:35:25;100723.22;;;6.17;75.60
75455;BME280;64035;48.358;2.122;2023-03-16T01:36:29;100722.22;;;6.15;75.32
75455;BME280;64035;48.358;2.122;2023-03-16T01:37:37;100727.31;;;6.15;75.78
75455;BME280;64035;48.358;2.122;2023-03-16T01:38:59;100722.88;;;6.12;75.93
75455;BME280;64035;48.358;2.122;2023-03-16T01:40:06;100720.25;;;6.11;75.60
75455;BME280;64035;48.358;2.122;2023-03-16T01:41:11;100722.03;;;6.12;75.64
75455;BME280;64035;48.358;2.122;2023-03-16T01:42:14;100733.06;;;6.12;75.70
75455;BME280;64035;48.358;2.122;2023-03-16T01:43:19;100721.16;;;6.11;75.34
75455;BME280;64035;48.358;2.122;2023-03-16T01:44:24;100723.56;;;6.10;75.88
75455;BME280;64035;48.358;2.122;2023-03-16T01:46:58;100716.72;;;6.09;75.89
75455;BME280;64035;48.358;2.122;2023-03-16T01:48:01;100721.81;;;6.09;75.51
75455;BME280;64035;48.358;2.122;2023-03-16T01:50:12;100714.19;;;6.09;75.85
75455;BME280;64035;48.358;2.122;2023-03-16T01:51:26;100705.69;;;6.08;75.70
75455;BME280;64035;48.358;2.122;2023-03-16T01:52:34;100710.66;;;6.07;75.19
75455;BME280;64035;48.358;2.122;2023-03-16T01:53:40;100718.16;;;6.05;75.85
75455;BME280;64035;48.358;2.122;2023-03-16T01:54:50;100707.91;;;6.04;75.49
75455;BME280;64035;48.358;2.122;2023-03-16T01:55:54;100707.91;;;6.04;76.05
75455;BME280;64035;48.358;2.122;2023-03-16T01:58:04;100716.19;;;6.01;75.56
75455;BME280;64035;48.358;2.122;2023-03-16T01:59:11;100715.41;;;6.02;75.80
75455;BME280;64035;48.358;2.122;2023-03-16T02:00:19;100717.97;;;6.02;75.59
75455;BME280;64035;48.358;2.122;2023-03-16T02:01:46;100710.09;;;5.99;76.01
75455;BME280;64035;48.358;2.122;2023-03-16T02:02:55;100712.66;;;5.99;75.52
75455;BME280;64035;48.358;2.122;2023-03-16T02:04:13;100708.25;;;5.97;75.79
75455;BME280;64035;48.358;2.122;2023-03-16T02:05:22;100710.69;;;5.95;75.80
75455;BME280;64035;48.358;2.122;2023-03-16T02:06:27;100703.94;;;5.96;75.50
75455;BME280;64035;48.358;2.122;2023-03-16T02:07:36;100706.59;;;5.97;76.06
75455;BME280;64035;48.358;2.122;2023-03-16T02:08:41;100709.91;;;5.96;76.24
75455;BME280;64035;48.358;2.122;2023-03-16T02:09:49;100705.72;;;5.97;75.69
75455;BME280;64035;48.358;2.122;2023-03-16T02:10:55;100701.53;;;5.97;75.23
75455;BME280;64035;48.358;2.122;2023-03-16T02:12:02;100704.81;;;5.96;75.34
75455;BME280;64035;48.358;2.122;2023-03-16T02:13:07;100701.28;;;5.94;75.95
75455;BME280;64035;48.358;2.122;2023-03-16T02:14:11;100696.88;;;5.92;75.76
75455;BME280;64035;48.358;2.122;2023-03-16T02:15:17;100696.09;;;5.93;75.88
75455;BME280;64035;48.358;2.122;2023-03-16T02:16:20;100695.13;;;5.91;75.95
75455;BME280;64035;48.358;2.122;2023-03-16T02:17:27;100688.28;;;5.90;75.80
75455;BME280;64035;48.358;2.122;2023-03-16T02:18:35;100682.19;;;5.87;75.76
75455;BME280;64035;48.358;2.122;2023-03-16T02:20:02;100677.13;;;5.87;76.48
75455;BME280;64035;48.358;2.122;2023-03-16T02:21:19;100677.22;;;5.89;75.99
75455;BME280;64035;48.358;2.122;2023-03-16T02:22:27;100679.78;;;5.89;76.20
75455;BME280;64035;48.358;2.122;2023-03-16T02:23:30;100672.03;;;5.87;75.97
75455;BME280;64035;48.358;2.122;2023-03-16T02:24:37;100673.53;;;5.85;75.73
75455;BME280;64035;48.358;2.122;2023-03-16T02:27:13;100667.69;;;5.86;75.64
75455;BME280;64035;48.358;2.122;2023-03-16T02:28:30;100671.00;;;5.85;75.21
75455;BME280;64035;48.358;2.122;2023-03-16T02:29:55;100670.22;;;5.86;75.78
75455;BME280;64035;48.358;2.122;2023-03-16T02:31:01;100667.50;;;5.83;75.84
75455;BME280;64035;48.358;2.122;2023-03-16T02:32:05;100660.53;;;5.81;75.18
75455;BME280;64035;48.358;2.122;2023-03-16T02:33:08;100665.72;;;5.82;76.04
75455;BME280;64035;48.358;2.122;2023-03-16T02:34:14;100664.63;;;5.79;76.27
75455;BME280;64035;48.358;2.122;2023-03-16T02:35:19;100668.91;;;5.80;75.95
75455;BME280;64035;48.358;2.122;2023-03-16T02:36:23;100668.91;;;5.80;75.85
75455;BME280;64035;48.358;2.122;2023-03-16T02:37:26;100673.13;;;5.79;75.40
75455;BME280;64035;48.358;2.122;2023-03-16T02:38:29;100669.69;;;5.79;75.98
75455;BME280;64035;48.358;2.122;2023-03-16T02:39:33;100662.66;;;5.75;75.66
75455;BME280;64035;48.358;2.122;2023-03-16T02:40:36;100665.28;;;5.76;75.91
75455;BME280;64035;48.358;2.122;2023-03-16T02:41:44;100667.81;;;5.76;75.26
75455;BME280;64035;48.358;2.122;2023-03-16T02:44:10;100653.13;;;5.72;75.96
75455;BME280;64035;48.358;2.122;2023-03-16T02:45:17;100657.34;;;5.72;75.38
75455;BME280;64035;48.358;2.122;2023-03-16T02:46:22;100654.78;;;5.72;75.71
75455;BME280;64035;48.358;2.122;2023-03-16T02:47:33;100660.75;;;5.72;75.43
75455;BME280;64035;48.358;2.122;2023-03-16T02:48:42;100661.53;;;5.71;75.44
75455;BME280;64035;48.358;2.122;2023-03-16T02:49:47;100650.38;;;5.69;75.15
75455;BME280;64035;48.358;2.122;2023-03-16T02:50:52;100638.47;;;5.68;75.88
75455;BME280;64035;48.358;2.122;2023-03-16T02:51:56;100648.63;;;5.68;75.10
75455;BME280;64035;48.358;2.122;2023-03-16T02:53:00;100642.56;;;5.66;76.31
75455;BME280;64035;48.358;2.122;2023-03-16T02:54:03;100644.97;;;5.65;75.22
75455;BME280;64035;48.358;2.122;2023-03-16T02:55:09;100644.78;;;5.62;76.04
75455;BME280;64035;48.358;2.122;2023-03-16T02:56:12;100641.38;;;5.61;75.65
75455;BME280;64035;48.358;2.122;2023-03-16T02:57:16;100638.81;;;5.61;76.30
75455;BME280;64035;48.358;2.122;2023-03-16T02:58:19;100641.25;;;5.60;76.29
75455;BME280;64035;48.358;2.122;2023-03-16T02:59:22;100640.25;;;5.58;75.00
75455;BME280;64035;48.358;2.122;2023-03-16T03:00:25;100641.13;;;5.58;75.61
75455;BME280;64035;48.358;2.122;2023-03-16T03:01:28;100637.59;;;5.56;76.01
75455;BME280;64035;48.358;2.122;2023-03-16T03:02:33;100634.84;;;5.53;75.61
75455;BME280;64035;48.358;2.122;2023-03-16T03:03:36;100643.44;;;5.55;76.07
75455;BME280;64035;48.358;2.122;2023-03-16T03:04:41;100638.38;;;5.55;75.99
75455;BME280;64035;48.358;2.122;2023-03-16T03:05:48;100632.19;;;5.52;76.33
75455;BME280;64035;48.358;2.122;2023-03-16T03:06:51;100634.63;;;5.50;76.16
75455;BME280;64035;48.358;2.122;2023-03-16T03:07:55;100633.84;;;5.51;76.18
75455;BME280;64035;48.358;2.122;2023-03-16T03:08:59;100638.94;;;5.51;75.93
75455;BME280;64035;48.358;2.122;2023-03-16T03:10:05;100633.97;;;5.53;75.40
75455;BME280;64035;48.358;2.122;2023-03-16T03:11:08;100633.09;;;5.52;75.99
75455;BME280;64035;48.358;2.122;2023-03-16T03:12:12;100640.59;;;5.50;75.97
75455;BME280;64035;48.358;2.122;2023-03-16T03:13:16;100638.03;;;5.50;76.07
75455;BME280;64035;48.358;2.122;2023-03-16T03:14:19;100633.75;;;5.49;76.25
75455;BME280;64035;48.358;2.122;2023-03-16T03:15:24;100636.16;;;5.48;76.17
75455;BME280;64035;48.358;2.122;2023-03-16T03:16:39;100627.59;;;5.46;75.33
75455;BME280;64035;48.358;2.122;2023-03-16T03:17:44;100640.34;;;5.47;75.51
75455;BME280;64035;48.358;2.122;2023-03-16T03:18:47;100639.50;;;5.47;76.13
75455;BME280;64035;48.358;2.122;2023-03-16T03:19:50;100648.84;;;5.48;75.27
75455;BME280;64035;48.358;2.122;2023-03-16T03:20:53;100639.50;;;5.47;75.68
75455;BME280;64035;48.358;2.122;2023-03-16T03:21:56;100644.47;;;5.45;75.33
75455;BME280;64035;48.358;2.122;2023-03-16T03:22:59;100642.56;;;5.43;75.97
75455;BME280;64035;48.358;2.122;2023-03-16T03:24:02;100639.28;;;5.44;75.47
75455;BME280;64035;48.358;2.122;2023-03-16T03:25:11;100646.13;;;5.45;75.52
75455;BME280;64035;48.358;2.122;2023-03-16T03:26:16;100640.94;;;5.43;75.05
75455;BME280;64035;48.358;2.122;2023-03-16T03:27:20;100635.72;;;5.42;75.60
75455;BME280;64035;48.358;2.122;2023-03-16T03:28:25;100640.03;;;5.43;75.32
75455;BME280;64035;48.358;2.122;2023-03-16T03:29:29;100633.06;;;5.40;75.44
75455;BME280;64035;48.358;2.122;2023-03-16T03:30:36;100633.97;;;5.41;75.51
75455;BME280;64035;48.358;2.122;2023-03-16T03:31:39;100629.69;;;5.40;75.39
75455;BME280;64035;48.358;2.122;2023-03-16T03:32:43;100637.19;;;5.38;75.66
75455;BME280;64035;48.358;2.122;2023-03-16T03:33:46;100627.38;;;5.31;76.01
75455;BME280;64035;48.358;2.122;2023-03-16T03:34:50;100636.94;;;5.35;75.08
75455;BME280;64035;48.358;2.122;2023-03-16T03:35:57;100637.06;;;5.37;75.81
75455;BME280;64035;48.358;2.122;2023-03-16T03:37:02;100634.41;;;5.35;75.81
75455;BME280;64035;48.358;2.122;2023-03-16T03:38:05;100635.28;;;5.36;75.98
75455;BME280;64035;48.358;2.122;2023-03-16T03:39:10;100623.25;;;5.33;75.50
75455;BME280;64035;48.358;2.122;2023-03-16T03:40:15;100635.19;;;5.34;75.99
75455;BME280;64035;48.358;2.122;2023-03-16T03:41:20;100630.88;;;5.33;75.61
75455;BME280;64035;48.358;2.122;2023-03-16T03:42:24;100621.41;;;5.31;75.81
75455;BME280;64035;48.358;2.122;2023-03-16T03:43:29;100617.88;;;5.29;76.15
75455;BME280;64035;48.358;2.122;2023-03-16T03:44:33;100622.19;;;5.30;75.84
75455;BME280;64035;48.358;2.122;2023-03-16T03:45:39;100620.41;;;5.29;76.42
75455;BME280;64035;48.358;2.122;2023-03-16T03:46:42;100615.22;;;5.27;75.34
75455;BME280;64035;48.358;2.122;2023-03-16T03:47:46;100622.06;;;5.28;75.81
75455;BME280;64035;48.358;2.122;2023-03-16T03:48:54;100620.22;;;5.26;75.37
75455;BME280;64035;48.358;2.122;2023-03-16T03:49:58;100620.22;;;5.26;75.43
75455;BME280;64035;48.358;2.122;2023-03-16T03:51:01;100626.81;;;5.24;75.45
75455;BME280;64035;48.358;2.122;2023-03-16T03:52:31;100611.59;;;5.24;76.05
75455;BME280;64035;48.358;2.122;2023-03-16T03:53:34;100623.41;;;5.23;75.30
75455;BME280;64035;48.358;2.122;2023-03-16T03:55:00;100621.75;;;5.24;76.35
75455;BME280;64035;48.358;2.122;2023-03-16T03:56:03;100617.44;;;5.23;76.22
75455;BME280;64035;48.358;2.122;2023-03-16T03:57:06;100619.22;;;5.24;76.00
75455;BME280;64035;48.358;2.122;2023-03-16T03:58:09;100622.50;;;5.23;76.30
75455;BME280;64035;48.358;2.122;2023-03-16T03:59:13;100615.66;;;5.22;76.22
75455;BME280;64035;48.358;2.122;2023-03-16T04:00:38;100611.34;;;5.21;75.52
75455;BME280;64035;48.358;2.122;2023-03-16T04:01:41;100615.66;;;5.22;75.91
75455;BME280;64035;48.358;2.122;2023-03-16T04:02:44;100607.06;;;5.20;76.03
75455;BME280;64035;48.358;2.122;2023-03-16T04:03:55;100612.13;;;5.20;75.84
75455;BME280;64035;48.358;2.122;2023-03-16T04:04:58;100603.53;;;5.18;75.79
75455;BME280;64035;48.358;2.122;2023-03-16T04:06:01;100602.66;;;5.17;76.11
75455;BME280;64035;48.358;2.122;2023-03-16T04:07:05;100606.97;;;5.18;75.48
75455;BME280;64035;48.358;2.122;2023-03-16T04:08:08;100603.44;;;5.16;75.82
75455;BME280;64035;48.358;2.122;2023-03-16T04:09:11;100601.78;;;5.17;76.24
75455;BME280;64035;48.358;2.122;2023-03-16T04:10:14;100601.00;;;5.18;75.58
75455;BME280;64035;48.358;2.122;2023-03-16T04:11:19;100604.19;;;5.15;75.82
75455;BME280;64035;48.358;2.122;2023-03-16T04:12:23;100605.72;;;5.13;75.80
75455;BME280;64035;48.358;2.122;2023-03-16T04:13:27;100593.03;;;5.13;75.98
75455;BME280;64035;48.358;2.122;2023-03-16T04:14:30;100593.94;;;5.14;76.47
75455;BME280;64035;48.358;2.122;2023-03-16T04:15:35;100600.53;;;5.11;75.67
75455;BME280;64035;48.358;2.122;2023-03-16T04:16:55;100593.50;;;5.07;76.07
75455;BME280;64035;48.358;2.122;2023-03-16T04:17:58;100598.69;;;5.09;76.01
75455;BME280;64035;48.358;2.122;2023-03-16T04:19:01;100595.28;;;5.08;75.70
75455;BME280;64035;48.358;2.122;2023-03-16T04:20:05;100590.19;;;5.08;75.62
75455;BME280;64035;48.358;2.122;2023-03-16T04:21:15;100593.38;;;5.06;76.11
75455;BME280;64035;48.358;2.122;2023-03-16T04:22:21;100590.63;;;5.03;75.67
75455;BME280;64035;48.358;2.122;2023-03-16T04:23:25;100596.69;;;5.05;75.57
75455;BME280;64035;48.358;2.122;2023-03-16T04:24:29;100594.16;;;5.05;76.08
75455;BME280;64035;48.358;2.122;2023-03-16T04:25:36;100590.63;;;5.03;75.82
75455;BME280;64035;48.358;2.122;2023-03-16T04:26:41;100595.59;;;5.01;75.67
75455;BME280;64035;48.358;2.122;2023-03-16T04:27:47;100592.28;;;5.02;76.17
75455;BME280;64035;48.358;2.122;2023-03-16T04:28:52;100596.47;;;5.02;76.07
75455;BME280;64035;48.358;2.122;2023-03-16T04:29:56;100594.59;;;4.99;75.26
75455;BME280;64035;48.358;2.122;2023-03-16T04:31:03;100591.06;;;4.97;76.17
75455;BME280;64035;48.358;2.122;2023-03-16T04:32:11;100590.28;;;4.98;75.79
75455;BME280;64035;48.358;2.122;2023-03-16T04:33:15;100580.06;;;4.97;75.93
75455;BME280;64035;48.358;2.122;2023-03-16T04:34:20;100580.16;;;4.98;75.41
75455;BME280;64035;48.358;2.122;2023-03-16T04:35:29;100580.06;;;4.97;76.17
75455;BME280;64035;48.358;2.122;2023-03-16T04:36:33;100575.75;;;4.96;75.98
75455;BME280;64035;48.358;2.122;2023-03-16T04:37:37;100579.94;;;4.95;75.67
75455;BME280;64035;48.358;2.122;2023-03-16T04:38:42;100570.44;;;4.93;76.42
75455;BME280;64035;48.358;2.122;2023-03-16T04:39:47;100574.63;;;4.92;75.93
75455;BME280;64035;48.358;2.122;2023-03-16T04:40:50;100575.53;;;4.93;75.75
75455;BME280;64035;48.358;2.122;2023-03-16T04:41:55;100574.63;;;4.92;75.88
75455;BME280;64035;48.358;2.122;2023-03-16T04:43:02;100572.88;;;4.91;76.15
75455;BME280;64035;48.358;2.122;2023-03-16T04:44:07;100576.16;;;4.90;76.12
75455;BME280;64035;48.358;2.122;2023-03-16T04:45:11;100582.13;;;4.91;76.05
75455;BME280;64035;48.358;2.122;2023-03-16T04:46:16;100577.84;;;4.90;75.34
75455;BME280;64035;48.358;2.122;2023-03-16T04:47:19;100582.69;;;4.87;75.95
75455;BME280;64035;48.358;2.122;2023-03-16T04:48:24;100583.56;;;4.87;75.29
75455;BME280;64035;48.358;2.122;2023-03-16T04:49:28;100579.16;;;4.85;75.87
75455;BME280;64035;48.358;2.122;2023-03-16T04:50:31;100578.16;;;4.83;75.33
75455;BME280;64035;48.358;2.122;2023-03-16T04:51:36;100569.78;;;4.84;75.50
75455;BME280;64035;48.358;2.122;2023-03-16T04:52:43;100573.88;;;4.82;75.57
75455;BME280;64035;48.358;2.122;2023-03-16T04:53:46;100574.63;;;4.81;75.46
75455;BME280;64035;48.358;2.122;2023-03-16T04:54:59;100571.34;;;4.82;75.97
75455;BME280;64035;48.358;2.122;2023-03-16T04:56:02;100572.00;;;4.79;75.50
75455;BME280;64035;48.358;2.122;2023-03-16T04:57:07;100573.63;;;4.79;75.40
75455;BME280;64035;48.358;2.122;2023-03-16T04:58:22;100576.19;;;4.79;75.87
75455;BME280;64035;48.358;2.122;2023-03-16T04:59:28;100570.34;;;4.80;75.40
75455;BME280;64035;48.358;2.122;2023-03-16T05:00:41;100562.72;;;4.80;75.46
75455;BME280;64035;48.358;2.122;2023-03-16T05:01:58;100566.78;;;4.78;75.61
75455;BME280;64035;48.358;2.122;2023-03-16T05:03:01;100572.75;;;4.78;75.39
75455;BME280;64035;48.358;2.122;2023-03-16T05:04:05;100568.69;;;4.80;75.34
75455;BME280;64035;48.358;2.122;2023-03-16T05:05:12;100564.38;;;4.79;75.24
75455;BME280;64035;48.358;2.122;2023-03-16T05:06:18;100567.81;;;4.80;75.17
75455;BME280;64035;48.358;2.122;2023-03-16T05:07:22;100555.00;;;4.78;75.14
75455;BME280;64035;48.358;2.122;2023-03-16T05:08:29;100563.19;;;4.74;75.58
75455;BME280;64035;48.358;2.122;2023-03-16T05:09:32;100564.94;;;4.75;75.70
75455;BME280;64035;48.358;2.122;2023-03-16T05:10:35;100555.56;;;4.74;75.72
75455;BME280;64035;48.358;2.122;2023-03-16T05:11:38;100557.97;;;4.72;75.57
75455;BME280;64035;48.358;2.122;2023-03-16T05:12:44;100553.69;;;4.71;75.51
75455;BME280;64035;48.358;2.122;2023-03-16T05:13:48;100553.81;;;4.73;75.31
75455;BME280;64035;48.358;2.122;2023-03-16T05:14:51;100556.97;;;4.70;76.13
75455;BME280;64035;48.358;2.122;2023-03-16T05:16:13;100557.97;;;4.72;75.13
75455;BME280;64035;48.358;2.122;2023-03-16T05:17:17;100547.53;;;4.68;75.54
75455;BME280;64035;48.358;2.122;2023-03-16T05:18:22;100551.72;;;4.67;75.68
75455;BME280;64035;48.358;2.122;2023-03-16T05:19:25;100560.28;;;4.69;76.00
75455;BME280;64035;48.358;2.122;2023-03-16T05:20:28;100556.53;;;4.64;75.98
75455;BME280;64035;48.358;2.122;2023-03-16T05:21:35;100553.13;;;4.64;75.63
75455;BME280;64035;48.358;2.122;2023-03-16T05:22:44;100552.25;;;4.63;76.12
75455;BME280;64035;48.358;2.122;2023-03-16T05:23:59;100548.94;;;4.64;75.64
75455;BME280;64035;48.358;2.122;2023-03-16T05:25:02;100548.94;;;4.64;75.66
75455;BME280;64035;48.358;2.122;2023-03-16T05:26:07;100544.50;;;4.62;76.02
75455;BME280;64035;48.358;2.122;2023-03-16T05:27:12;100543.75;;;4.63;75.94
75455;BME280;64035;48.358;2.122;2023-03-16T05:28:15;100539.56;;;4.63;76.18
75455;BME280;64035;48.358;2.122;2023-03-16T05:29:24;100540.44;;;4.64;75.83
75455;BME280;64035;48.358;2.122;2023-03-16T05:30:32;100540.44;;;4.64;75.85
75455;BME280;64035;48.358;2.122;2023-03-16T05:31:39;100545.50;;;4.64;75.90
75455;BME280;64035;48.358;2.122;2023-03-16T05:32:48;100549.81;;;4.65;75.33
75455;BME280;64035;48.358;2.122;2023-03-16T05:33:52;100545.50;;;4.64;75.39
75455;BME280;64035;48.358;2.122;2023-03-16T05:34:56;100544.63;;;4.63;75.72
75455;BME280;64035;48.358;2.122;2023-03-16T05:36:00;100545.41;;;4.62;76.35
75455;BME280;64035;48.358;2.122;2023-03-16T05:37:04;100542.09;;;4.63;75.67
75455;BME280;64035;48.358;2.122;2023-03-16T05:38:09;100549.69;;;4.63;75.93
75455;BME280;64035;48.358;2.122;2023-03-16T05:39:15;100547.03;;;4.62;75.78
75455;BME280;64035;48.358;2.122;2023-03-16T05:40:22;100543.75;;;4.63;75.98
75455;BME280;64035;48.358;2.122;2023-03-16T05:41:33;100543.53;;;4.60;76.38
75455;BME280;64035;48.358;2.122;2023-03-16T05:42:44;100545.19;;;4.59;75.64
75455;BME280;64035;48.358;2.122;2023-03-16T05:43:47;100545.06;;;4.58;76.31
75455;BME280;64035;48.358;2.122;2023-03-16T05:44:52;100544.44;;;4.60;75.99
75455;BME280;64035;48.358;2.122;2023-03-16T05:46:02;100549.38;;;4.59;76.05
75455;BME280;64035;48.358;2.122;2023-03-16T05:47:06;100549.38;;;4.59;76.26
75455;BME280;64035;48.358;2.122;2023-03-16T05:48:13;100543.31;;;4.57;76.56
75455;BME280;64035;48.358;2.122;2023-03-16T05:49:21;100545.97;;;4.58;75.78
75455;BME280;64035;48.358;2.122;2023-03-16T05:50:25;100538.22;;;4.57;76.42
75455;BME280;64035;48.358;2.122;2023-03-16T05:51:28;100528.97;;;4.57;77.02
75455;BME280;64035;48.358;2.122;2023-03-16T05:52:31;100526.31;;;4.56;76.41
75455;BME280;64035;48.358;2.122;2023-03-16T05:53:38;100523.78;;;4.56;76.03
75455;BME280;64035;48.358;2.122;2023-03-16T05:54:48;100521.13;;;4.54;76.68